sensor_id;sensor_type;location;lat;lon;timestamp;pressure;altitude;pressure_sealevel;temperature;humidity
141;BME280;65;48.778;9.160;2023-04-06T00:02:01;98779.31;;;1.75;71.20
141;BME280;65;48.778;9.160;2023-04-06T00:04:47;98775.69;;;1.83;72.22
141;BME280;65;48.778;9.160;2023-04-06T00:07:33;98774.91;;;1.78;71.69
141;BME280;65;48.778;9.160;2023-04-06T00:10:19;98768.91;;;1.72;72.24
141;BME280;65;48.778;9.160;2023-04-06T00:13:06;98767.34;;;1.63;72.68
141;BME280;65;48.778;9.160;2023-04-06T00:15:52;98764.75;;;1.63;73.57
141;BME280;65;48.778;9.160;2023-04-06T00:18:39;98769.03;;;1.66;74.42
141;BME280;65;48.778;9.160;2023-04-06T00:21:24;98767.38;;;1.62;73.64
141;BME280;65;48.778;9.160;2023-04-06T00:24:11;98757.06;;;1.55;73.98
141;BME280;65;48.778;9.160;2023-04-06T00:26:56;98767.50;;;1.54;73.62
141;BME280;65;48.778;9.160;2023-04-06T00:29:43;98770.25;;;1.46;73.67
141;BME280;65;48.778;9.160;2023-04-06T00:32:30;98763.34;;;1.44;75.55
141;BME280;65;48.778;9.160;2023-04-06T00:35:16;98766.03;;;1.41;75.26
141;BME280;65;48.778;9.160;2023-04-06T00:38:01;98759.84;;;1.46;75.66
141;BME280;65;48.778;9.160;2023-04-06T00:40:47;98759.78;;;1.49;74.25
141;BME280;65;48.778;9.160;2023-04-06T00:43:33;98758.03;;;1.50;74.45
141;BME280;65;48.778;9.160;2023-04-06T00:46:19;98754.53;;;1.52;74.27
141;BME280;65;48.778;9.160;2023-04-06T00:49:05;98757.75;;;1.65;75.26
141;BME280;65;48.778;9.160;2023-04-06T00:51:50;98754.16;;;1.74;75.34
141;BME280;65;48.778;9.160;2023-04-06T00:54:36;98750.44;;;1.85;75.00
141;BME280;65;48.778;9.160;2023-04-06T00:57:22;98745.03;;;1.96;74.63
141;BME280;65;48.778;9.160;2023-04-06T01:00:08;98746.72;;;1.99;74.41
141;BME280;65;48.778;9.160;2023-04-06T01:02:54;98745.97;;;1.92;75.42
141;BME280;65;48.778;9.160;2023-04-06T01:05:40;98743.50;;;1.86;74.91
141;BME280;65;48.778;9.160;2023-04-06T01:08:26;98736.69;;;1.79;74.35
141;BME280;65;48.778;9.160;2023-04-06T01:11:12;98739.16;;;1.85;73.18
141;BME280;65;48.778;9.160;2023-04-06T01:13:58;98736.44;;;1.91;72.54
141;BME280;65;48.778;9.160;2023-04-06T01:16:43;98734.53;;;1.99;72.54
141;BME280;65;48.778;9.160;2023-04-06T01:19:29;98738.66;;;2.09;71.06
141;BME280;65;48.778;9.160;2023-04-06T01:22:16;98741.25;;;2.11;71.11
141;BME280;65;48.778;9.160;2023-04-06T01:25:02;98738.66;;;2.09;70.87
141;BME280;65;48.778;9.160;2023-04-06T01:27:48;98737.16;;;1.99;71.59
141;BME280;65;48.778;9.160;2023-04-06T01:30:34;98734.75;;;1.88;72.32
141;BME280;65;48.778;9.160;2023-04-06T01:33:19;98737.66;;;1.72;74.00
141;BME280;65;48.778;9.160;2023-04-06T01:36:05;98736.13;;;1.62;73.91
141;BME280;65;48.778;9.160;2023-04-06T01:38:51;98726.72;;;1.53;74.25
141;BME280;65;48.778;9.160;2023-04-06T01:41:37;98730.41;;;1.41;75.75
141;BME280;65;48.778;9.160;2023-04-06T01:44:37;98729.66;;;1.35;75.87
141;BME280;65;48.778;9.160;2023-04-06T01:47:23;98722.81;;;1.31;75.24
141;BME280;65;48.778;9.160;2023-04-06T01:50:09;98720.38;;;1.21;74.85
141;BME280;65;48.778;9.160;2023-04-06T01:52:55;98725.72;;;1.11;75.58
141;BME280;65;48.778;9.160;2023-04-06T01:55:40;98722.41;;;1.01;75.08
141;BME280;65;48.778;9.160;2023-04-06T01:58:54;98713.63;;;1.08;76.00
141;BME280;65;48.778;9.160;2023-04-06T02:01:41;98704.19;;;1.01;76.01
141;BME280;65;48.778;9.160;2023-04-06T02:04:26;98711.25;;;0.94;76.61
141;BME280;65;48.778;9.160;2023-04-06T02:07:12;98713.97;;;0.88;76.37
141;BME280;65;48.778;9.160;2023-04-06T02:09:58;98719.22;;;0.85;77.00
141;BME280;65;48.778;9.160;2023-04-06T02:12:44;98720.03;;;0.87;77.18
141;BME280;65;48.778;9.160;2023-04-06T02:15:29;98715.78;;;0.83;78.71
141;BME280;65;48.778;9.160;2023-04-06T02:18:15;98712.38;;;0.78;79.65
141;BME280;65;48.778;9.160;2023-04-06T02:21:03;98714.22;;;0.72;80.10
141;BME280;65;48.778;9.160;2023-04-06T02:23:48;98708.13;;;0.73;81.33
141;BME280;65;48.778;9.160;2023-04-06T02:26:34;98712.41;;;0.77;81.55
141;BME280;65;48.778;9.160;2023-04-06T02:29:20;98713.41;;;0.68;80.85
141;BME280;65;48.778;9.160;2023-04-06T02:32:07;98706.53;;;0.64;81.19
141;BME280;65;48.778;9.160;2023-04-06T02:34:52;98710.00;;;0.65;81.43
141;BME280;65;48.778;9.160;2023-04-06T02:37:38;98714.31;;;0.66;81.98
141;BME280;65;48.778;9.160;2023-04-06T02:40:24;98712.53;;;0.69;80.24
141;BME280;65;48.778;9.160;2023-04-06T02:43:10;98703.91;;;0.66;80.33
141;BME280;65;48.778;9.160;2023-04-06T02:45:55;98704.81;;;0.63;81.48
141;BME280;65;48.778;9.160;2023-04-06T02:48:41;98706.31;;;0.79;78.86
141;BME280;65;48.778;9.160;2023-04-06T02:51:27;98703.72;;;0.78;78.69
141;BME280;65;48.778;9.160;2023-04-06T02:54:13;98701.94;;;0.81;79.51
141;BME280;65;48.778;9.160;2023-04-06T02:56:59;98702.03;;;0.75;79.06
141;BME280;65;48.778;9.160;2023-04-06T02:59:45;98706.31;;;0.79;78.69
141;BME280;65;48.778;9.160;2023-04-06T03:02:30;98701.78;;;0.90;78.03
141;BME280;65;48.778;9.160;2023-04-06T03:05:16;98700.16;;;0.83;78.23
141;BME280;65;48.778;9.160;2023-04-06T03:08:02;98703.84;;;0.70;79.01
141;BME280;65;48.778;9.160;2023-04-06T03:10:48;98704.75;;;0.68;78.42
141;BME280;65;48.778;9.160;2023-04-06T03:13:33;98701.19;;;0.73;78.47
141;BME280;65;48.778;9.160;2023-04-06T03:16:19;98690.59;;;0.85;77.18
141;BME280;65;48.778;9.160;2023-04-06T03:19:05;98691.31;;;0.93;76.81
141;BME280;65;48.778;9.160;2023-04-06T03:21:51;98684.44;;;0.91;76.80
141;BME280;65;48.778;9.160;2023-04-06T03:24:36;98698.41;;;0.85;76.71
141;BME280;65;48.778;9.160;2023-04-06T03:27:22;98698.56;;;0.75;78.02
141;BME280;65;48.778;9.160;2023-04-06T03:30:08;98698.72;;;0.66;79.49
141;BME280;65;48.778;9.160;2023-04-06T03:32:54;98703.09;;;0.62;81.52
141;BME280;65;48.778;9.160;2023-04-06T03:35:40;98696.50;;;0.38;81.45
141;BME280;65;48.778;9.160;2023-04-06T03:38:26;98704.53;;;0.21;82.27
141;BME280;65;48.778;9.160;2023-04-06T03:41:11;98705.38;;;0.23;83.76
141;BME280;65;48.778;9.160;2023-04-06T03:43:57;98710.59;;;0.22;84.03
141;BME280;65;48.778;9.160;2023-04-06T03:46:43;98713.97;;;0.28;82.64
141;BME280;65;48.778;9.160;2023-04-06T03:49:28;98713.84;;;0.38;82.69
141;BME280;65;48.778;9.160;2023-04-06T03:52:14;98713.00;;;0.36;82.20
141;BME280;65;48.778;9.160;2023-04-06T03:55:00;98709.53;;;0.37;82.17
141;BME280;65;48.778;9.160;2023-04-06T03:57:46;98708.78;;;0.28;81.90
141;BME280;65;48.778;9.160;2023-04-06T04:00:31;98711.47;;;0.21;82.54
141;BME280;65;48.778;9.160;2023-04-06T04:03:18;98718.41;;;0.20;82.80
141;BME280;65;48.778;9.160;2023-04-06T04:06:04;98709.72;;;0.23;82.89
141;BME280;65;48.778;9.160;2023-04-06T04:08:49;98716.69;;;0.21;83.25
141;BME280;65;48.778;9.160;2023-04-06T04:11:35;98726.22;;;0.20;84.05
141;BME280;65;48.778;9.160;2023-04-06T04:14:21;98722.78;;;0.18;84.24
141;BME280;65;48.778;9.160;2023-04-06T04:17:07;98724.56;;;0.13;84.77
141;BME280;65;48.778;9.160;2023-04-06T04:19:52;98721.13;;;0.11;84.89
141;BME280;65;48.778;9.160;2023-04-06T04:22:38;98731.53;;;0.11;84.61
141;BME280;65;48.778;9.160;2023-04-06T04:25:24;98725.47;;;0.11;84.29
141;BME280;65;48.778;9.160;2023-04-06T04:28:10;98729.00;;;0.07;84.46
141;BME280;65;48.778;9.160;2023-04-06T04:30:55;98729.91;;;0.04;84.89
141;BME280;65;48.778;9.160;2023-04-06T04:33:41;98724.66;;;0.07;85.40
141;BME280;65;48.778;9.160;2023-04-06T04:36:27;98734.16;;;0.10;85.34
141;BME280;65;48.778;9.160;2023-04-06T04:39:12;98728.09;;;0.09;85.99
141;BME280;65;48.778;9.160;2023-04-06T04:41:58;98733.34;;;0.05;85.44
141;BME280;65;48.778;9.160;2023-04-06T04:44:44;98728.13;;;0.06;85.66
141;BME280;65;48.778;9.160;2023-04-06T04:47:30;98727.31;;;0.03;85.72
141;BME280;65;48.778;9.160;2023-04-06T04:50:16;98736.00;;;-0.03;85.90
141;BME280;65;48.778;9.160;2023-04-06T04:53:02;98735.13;;;-0.02;85.95
141;BME280;65;48.778;9.160;2023-04-06T04:55:51;98736.03;;;-0.05;85.20
141;BME280;65;48.778;9.160;2023-04-06T04:58:36;98734.16;;;0.10;84.74
141;BME280;65;48.778;9.160;2023-04-06T05:01:22;98734.88;;;0.19;84.12
141;BME280;65;48.778;9.160;2023-04-06T05:04:08;98736.50;;;0.28;84.11
141;BME280;65;48.778;9.160;2023-04-06T05:07:07;98733.84;;;0.32;83.23
141;BME280;65;48.778;9.160;2023-04-06T05:09:53;98736.34;;;0.39;83.00
141;BME280;65;48.778;9.160;2023-04-06T05:12:39;98743.06;;;0.55;81.17
141;BME280;65;48.778;9.160;2023-04-06T05:15:25;98735.19;;;0.62;81.60
141;BME280;65;48.778;9.160;2023-04-06T05:18:12;98735.06;;;0.70;81.59
141;BME280;65;48.778;9.160;2023-04-06T05:20:58;98744.47;;;0.79;80.84
141;BME280;65;48.778;9.160;2023-04-06T05:23:44;98750.38;;;0.88;80.73
141;BME280;65;48.778;9.160;2023-04-06T05:26:30;98747.56;;;1.01;80.19
141;BME280;65;48.778;9.160;2023-04-06T05:29:16;98753.53;;;1.09;80.71
141;BME280;65;48.778;9.160;2023-04-06T05:32:02;98751.66;;;1.18;80.14
141;BME280;65;48.778;9.160;2023-04-06T05:34:48;98749.63;;;1.36;77.73
141;BME280;65;48.778;9.160;2023-04-06T05:37:35;98758.84;;;1.53;76.29
141;BME280;65;48.778;9.160;2023-04-06T05:40:20;98761.34;;;1.59;76.95
141;BME280;65;48.778;9.160;2023-04-06T05:43:07;98757.69;;;1.68;76.72
141;BME280;65;48.778;9.160;2023-04-06T05:45:53;98757.63;;;1.71;77.51
141;BME280;65;48.778;9.160;2023-04-06T05:48:39;98758.25;;;1.87;75.16
141;BME280;65;48.778;9.160;2023-04-06T05:51:25;98764.75;;;2.09;74.11
141;BME280;65;48.778;9.160;2023-04-06T05:54:12;98755.75;;;2.24;73.11
141;BME280;65;48.778;9.160;2023-04-06T05:56:57;98764.44;;;2.25;74.09
141;BME280;65;48.778;9.160;2023-04-06T05:59:43;98769.47;;;2.34;73.85
141;BME280;65;48.778;9.160;2023-04-06T06:02:32;98763.13;;;2.45;73.55
141;BME280;65;48.778;9.160;2023-04-06T06:05:18;98767.44;;;2.48;72.79
141;BME280;65;48.778;9.160;2023-04-06T06:08:04;98766.41;;;2.55;73.13
141;BME280;65;48.778;9.160;2023-04-06T06:10:49;98772.31;;;2.63;73.36
141;BME280;65;48.778;9.160;2023-04-06T06:13:35;98767.03;;;2.66;72.76
141;BME280;65;48.778;9.160;2023-04-06T06:16:21;98770.09;;;2.83;72.17
141;BME280;65;48.778;9.160;2023-04-06T06:19:07;98767.31;;;2.93;72.29
141;BME280;65;48.778;9.160;2023-04-06T06:21:53;98764.59;;;2.97;72.72
141;BME280;65;48.778;9.160;2023-04-06T06:24:39;98776.47;;;3.10;71.17
141;BME280;65;48.778;9.160;2023-04-06T06:27:24;98763.78;;;3.31;68.53
141;BME280;65;48.778;9.160;2023-04-06T06:30:11;98760.22;;;3.33;69.19
141;BME280;65;48.778;9.160;2023-04-06T06:32:56;98765.81;;;3.54;68.07
141;BME280;65;48.778;9.160;2023-04-06T06:35:42;98763.75;;;3.66;68.16
141;BME280;65;48.778;9.160;2023-04-06T06:38:28;98763.53;;;3.74;67.23
141;BME280;65;48.778;9.160;2023-04-06T06:41:14;98770.03;;;3.92;67.55
141;BME280;65;48.778;9.160;2023-04-06T06:43:59;98761.78;;;4.07;65.04
141;BME280;65;48.778;9.160;2023-04-06T06:46:45;98763.34;;;4.14;65.92
141;BME280;65;48.778;9.160;2023-04-06T06:49:31;98768.59;;;4.12;65.78
141;BME280;65;48.778;9.160;2023-04-06T06:52:17;98764.75;;;4.26;64.39
141;BME280;65;48.778;9.160;2023-04-06T06:55:03;98768.84;;;4.34;63.79
141;BME280;65;48.778;9.160;2023-04-06T06:57:49;98763.22;;;4.48;62.05
141;BME280;65;48.778;9.160;2023-04-06T07:00:34;98772.13;;;4.72;62.45
141;BME280;65;48.778;9.160;2023-04-06T07:03:20;98765.59;;;4.85;61.33
141;BME280;65;48.778;9.160;2023-04-06T07:06:06;98772.91;;;5.02;60.40
141;BME280;65;48.778;9.160;2023-04-06T07:08:52;98773.53;;;5.10;61.01
141;BME280;65;48.778;9.160;2023-04-06T07:11:37;98772.78;;;5.06;62.26
141;BME280;65;48.778;9.160;2023-04-06T07:14:23;98764.34;;;5.25;60.46
141;BME280;65;48.778;9.160;2023-04-06T07:17:09;98770.69;;;5.44;59.71
141;BME280;65;48.778;9.160;2023-04-06T07:19:55;98771.44;;;5.48;58.94
141;BME280;65;48.778;9.160;2023-04-06T07:22:42;98780.22;;;5.47;59.67
141;BME280;65;48.778;9.160;2023-04-06T07:25:29;98776.91;;;5.42;60.00
141;BME280;65;48.778;9.160;2023-04-06T07:28:15;98770.75;;;5.43;59.85
141;BME280;65;48.778;9.160;2023-04-06T07:31:01;98769.63;;;5.50;58.93
141;BME280;65;48.778;9.160;2023-04-06T07:33:47;98778.09;;;5.58;58.79
141;BME280;65;48.778;9.160;2023-04-06T07:36:32;98774.34;;;5.65;59.24
141;BME280;65;48.778;9.160;2023-04-06T07:39:18;98769.91;;;5.93;58.61
141;BME280;65;48.778;9.160;2023-04-06T07:42:04;98779.53;;;6.18;55.45
141;BME280;65;48.778;9.160;2023-04-06T07:48:27;98777.06;;;6.38;56.50
141;BME280;65;48.778;9.160;2023-04-06T07:51:12;98768.66;;;6.52;55.27
141;BME280;65;48.778;9.160;2023-04-06T07:54:00;98777.06;;;6.61;54.94
141;BME280;65;48.778;9.160;2023-04-06T07:56:46;98768.81;;;6.71;56.01
141;BME280;65;48.778;9.160;2023-04-06T07:59:32;98762.97;;;6.86;54.52
141;BME280;65;48.778;9.160;2023-04-06T08:02:17;98763.94;;;7.07;52.95
141;BME280;65;48.778;9.160;2023-04-06T08:05:03;98763.41;;;7.63;53.23
141;BME280;65;48.778;9.160;2023-04-06T08:07:49;98762.13;;;7.91;51.17
141;BME280;65;48.778;9.160;2023-04-06T08:10:35;98765.63;;;7.92;51.84
141;BME280;65;48.778;9.160;2023-04-06T08:13:21;98768.59;;;7.84;51.97
141;BME280;65;48.778;9.160;2023-04-06T08:16:07;98766.41;;;7.53;52.55
141;BME280;65;48.778;9.160;2023-04-06T08:18:52;98766.03;;;7.63;52.71
141;BME280;65;48.778;9.160;2023-04-06T08:21:38;98772.59;;;7.73;52.04
141;BME280;65;48.778;9.160;2023-04-06T08:24:25;98767.75;;;7.84;51.70
141;BME280;65;48.778;9.160;2023-04-06T08:27:13;98771.41;;;8.00;52.04
141;BME280;65;48.778;9.160;2023-04-06T08:30:00;98766.50;;;8.13;49.16
141;BME280;65;48.778;9.160;2023-04-06T08:32:46;98766.09;;;8.22;49.17
141;BME280;65;48.778;9.160;2023-04-06T08:35:31;98771.63;;;8.36;50.18
141;BME280;65;48.778;9.160;2023-04-06T08:38:17;98764.50;;;8.57;49.27
141;BME280;65;48.778;9.160;2023-04-06T08:41:10;98761.91;;;8.76;49.04
141;BME280;65;48.778;9.160;2023-04-06T08:43:58;98757.25;;;9.00;48.71
141;BME280;65;48.778;9.160;2023-04-06T08:46:44;98755.16;;;9.25;47.42
141;BME280;65;48.778;9.160;2023-04-06T08:49:30;98756.38;;;10.72;44.79
141;BME280;65;48.778;9.160;2023-04-06T08:52:18;98757.44;;;13.61;38.32
141;BME280;65;48.778;9.160;2023-04-06T08:55:04;98748.69;;;15.85;34.62
141;BME280;65;48.778;9.160;2023-04-06T08:57:50;98751.03;;;16.69;32.22
141;BME280;65;48.778;9.160;2023-04-06T09:00:40;98744.00;;;17.56;30.31
141;BME280;65;48.778;9.160;2023-04-06T09:03:28;98740.22;;;18.74;28.55
141;BME280;65;48.778;9.160;2023-04-06T09:06:15;98741.22;;;18.11;28.82
141;BME280;65;48.778;9.160;2023-04-06T09:12:36;98740.38;;;16.69;28.11
141;BME280;65;48.778;9.160;2023-04-06T09:15:22;98736.28;;;14.38;32.29
141;BME280;65;48.778;9.160;2023-04-06T09:18:08;98737.22;;;13.05;36.02
141;BME280;65;48.778;9.160;2023-04-06T09:21:03;98736.91;;;12.26;37.63
141;BME280;65;48.778;9.160;2023-04-06T09:24:00;98741.84;;;11.88;38.35
141;BME280;65;48.778;9.160;2023-04-06T09:26:46;98741.50;;;11.64;38.62
141;BME280;65;48.778;9.160;2023-04-06T09:29:32;98741.31;;;11.51;38.34
141;BME280;65;48.778;9.160;2023-04-06T09:32:18;98736.88;;;11.22;38.52
141;BME280;65;48.778;9.160;2023-04-06T09:35:08;98734.53;;;11.31;38.22
141;BME280;65;48.778;9.160;2023-04-06T09:37:54;98733.13;;;11.10;39.17
141;BME280;65;48.778;9.160;2023-04-06T09:40:51;98733.03;;;10.96;39.28
141;BME280;65;48.778;9.160;2023-04-06T09:43:41;98740.03;;;10.81;41.23
141;BME280;65;48.778;9.160;2023-04-06T09:46:33;98731.75;;;11.03;37.72
141;BME280;65;48.778;9.160;2023-04-06T09:49:22;98724.59;;;11.05;38.60
141;BME280;65;48.778;9.160;2023-04-06T09:52:11;98724.84;;;11.00;37.61
141;BME280;65;48.778;9.160;2023-04-06T09:55:03;98721.94;;;11.21;36.12
141;BME280;65;48.778;9.160;2023-04-06T09:57:53;98719.28;;;11.21;36.78
141;BME280;65;48.778;9.160;2023-04-06T10:00:59;98724.50;;;11.52;37.09
141;BME280;65;48.778;9.160;2023-04-06T10:04:00;98716.84;;;12.22;33.96
141;BME280;65;48.778;9.160;2023-04-06T10:06:49;98714.91;;;15.14;32.50
141;BME280;65;48.778;9.160;2023-04-06T10:09:38;98716.38;;;19.11;26.33
141;BME280;65;48.778;9.160;2023-04-06T10:12:24;98709.19;;;20.84;22.79
141;BME280;65;48.778;9.160;2023-04-06T10:15:10;98712.91;;;21.01;23.19
141;BME280;65;48.778;9.160;2023-04-06T10:17:57;98703.81;;;22.62;20.21
141;BME280;65;48.778;9.160;2023-04-06T10:23:51;98702.44;;;23.34;19.78
141;BME280;65;48.778;9.160;2023-04-06T10:26:38;98704.59;;;24.30;17.79
141;BME280;65;48.778;9.160;2023-04-06T10:29:25;98702.28;;;23.44;21.61
141;BME280;65;48.778;9.160;2023-04-06T10:32:11;98695.78;;;24.19;19.70
141;BME280;65;48.778;9.160;2023-04-06T10:35:08;98681.97;;;21.77;19.16
141;BME280;65;48.778;9.160;2023-04-06T10:38:04;98697.00;;;19.77;20.78
141;BME280;65;48.778;9.160;2023-04-06T10:40:50;98698.13;;;21.77;22.67
141;BME280;65;48.778;9.160;2023-04-06T10:43:37;98688.28;;;22.30;20.96
141;BME280;65;48.778;9.160;2023-04-06T10:46:29;98677.47;;;23.24;18.85
141;BME280;65;48.778;9.160;2023-04-06T10:49:15;98691.09;;;22.20;19.48
141;BME280;65;48.778;9.160;2023-04-06T10:52:01;98681.88;;;19.85;22.56
141;BME280;65;48.778;9.160;2023-04-06T10:54:47;98683.69;;;19.46;20.43
141;BME280;65;48.778;9.160;2023-04-06T11:00:59;98677.81;;;23.21;17.70
141;BME280;65;48.778;9.160;2023-04-06T11:03:47;98686.59;;;22.81;19.74
141;BME280;65;48.778;9.160;2023-04-06T11:06:33;98677.84;;;23.53;18.96
141;BME280;65;48.778;9.160;2023-04-06T11:09:26;98677.22;;;23.67;18.87
141;BME280;65;48.778;9.160;2023-04-06T11:12:26;98671.38;;;22.46;20.08
141;BME280;65;48.778;9.160;2023-04-06T11:15:13;98672.09;;;24.62;16.85
141;BME280;65;48.778;9.160;2023-04-06T11:18:03;98666.44;;;24.33;17.73
141;BME280;65;48.778;9.160;2023-04-06T11:20:49;98663.13;;;24.62;17.92
141;BME280;65;48.778;9.160;2023-04-06T11:23:35;98650.03;;;22.86;18.10
141;BME280;65;48.778;9.160;2023-04-06T11:26:45;98657.38;;;20.64;22.35
141;BME280;65;48.778;9.160;2023-04-06T11:29:33;98646.88;;;22.99;19.31
141;BME280;65;48.778;9.160;2023-04-06T11:32:22;98644.72;;;23.11;18.09
141;BME280;65;48.778;9.160;2023-04-06T11:35:22;98636.19;;;23.40;17.77
141;BME280;65;48.778;9.160;2023-04-06T11:38:08;98642.06;;;23.19;17.58
141;BME280;65;48.778;9.160;2023-04-06T11:40:54;98644.97;;;21.97;19.88
141;BME280;65;48.778;9.160;2023-04-06T11:43:47;98638.50;;;22.34;18.37
141;BME280;65;48.778;9.160;2023-04-06T11:46:33;98643.66;;;22.27;18.93
141;BME280;65;48.778;9.160;2023-04-06T11:49:19;98641.72;;;21.94;20.56
141;BME280;65;48.778;9.160;2023-04-06T11:52:22;98637.34;;;20.59;19.86
141;BME280;65;48.778;9.160;2023-04-06T11:58:30;98618.13;;;22.73;17.46
141;BME280;65;48.778;9.160;2023-04-06T12:01:16;98628.06;;;19.97;20.40
141;BME280;65;48.778;9.160;2023-04-06T12:07:34;98620.84;;;21.44;19.49
141;BME280;65;48.778;9.160;2023-04-06T12:10:20;98620.31;;;21.13;19.03
141;BME280;65;48.778;9.160;2023-04-06T12:13:06;98623.06;;;17.43;22.79
141;BME280;65;48.778;9.160;2023-04-06T12:16:01;98618.34;;;16.27;24.39
141;BME280;65;48.778;9.160;2023-04-06T12:18:47;98618.38;;;19.67;21.56
141;BME280;65;48.778;9.160;2023-04-06T12:21:34;98608.56;;;22.11;18.96
141;BME280;65;48.778;9.160;2023-04-06T12:24:22;98612.41;;;21.65;19.68
141;BME280;65;48.778;9.160;2023-04-06T12:27:08;98597.03;;;21.04;19.81
141;BME280;65;48.778;9.160;2023-04-06T12:29:54;98597.34;;;19.72;23.49
141;BME280;65;48.778;9.160;2023-04-06T12:32:41;98598.03;;;21.21;22.21
141;BME280;65;48.778;9.160;2023-04-06T12:35:27;98582.19;;;23.07;18.28
141;BME280;65;48.778;9.160;2023-04-06T12:38:12;98586.47;;;23.58;17.79
141;BME280;65;48.778;9.160;2023-04-06T12:40:58;98579.75;;;19.97;19.09
141;BME280;65;48.778;9.160;2023-04-06T12:43:48;98576.78;;;21.27;19.43
141;BME280;65;48.778;9.160;2023-04-06T12:46:34;98573.38;;;22.47;18.30
141;BME280;65;48.778;9.160;2023-04-06T12:49:21;98571.16;;;21.03;19.19
141;BME280;65;48.778;9.160;2023-04-06T12:52:07;98579.97;;;19.56;20.89
141;BME280;65;48.778;9.160;2023-04-06T12:54:53;98572.75;;;18.30;21.46
141;BME280;65;48.778;9.160;2023-04-06T12:57:39;98592.69;;;17.65;22.59
141;BME280;65;48.778;9.160;2023-04-06T13:00:25;98573.59;;;18.30;23.29
141;BME280;65;48.778;9.160;2023-04-06T13:03:11;98577.22;;;16.40;23.45
141;BME280;65;48.778;9.160;2023-04-06T13:05:59;98577.34;;;17.25;25.32
141;BME280;65;48.778;9.160;2023-04-06T13:08:45;98566.72;;;18.78;24.58
141;BME280;65;48.778;9.160;2023-04-06T13:11:32;98570.97;;;17.79;21.92
141;BME280;65;48.778;9.160;2023-04-06T13:14:18;98568.63;;;17.65;22.24
141;BME280;65;48.778;9.160;2023-04-06T13:17:04;98565.97;;;16.26;25.84
141;BME280;65;48.778;9.160;2023-04-06T13:19:50;98563.53;;;17.20;23.93
141;BME280;65;48.778;9.160;2023-04-06T13:22:37;98558.16;;;16.99;24.49
141;BME280;65;48.778;9.160;2023-04-06T13:25:23;98563.00;;;17.05;24.21
141;BME280;65;48.778;9.160;2023-04-06T13:28:09;98561.81;;;16.44;24.10
141;BME280;65;48.778;9.160;2023-04-06T13:30:55;98559.31;;;16.86;23.95
141;BME280;65;48.778;9.160;2023-04-06T13:34:05;98562.75;;;17.50;24.65
141;BME280;65;48.778;9.160;2023-04-06T13:36:51;98557.13;;;18.35;22.35
141;BME280;65;48.778;9.160;2023-04-06T13:39:37;98547.97;;;18.28;23.69
141;BME280;65;48.778;9.160;2023-04-06T13:42:23;98547.28;;;19.24;20.40
141;BME280;65;48.778;9.160;2023-04-06T13:45:09;98542.91;;;18.84;22.86
141;BME280;65;48.778;9.160;2023-04-06T13:47:55;98546.00;;;18.70;22.23
141;BME280;65;48.778;9.160;2023-04-06T13:50:41;98546.66;;;17.61;24.35
141;BME280;65;48.778;9.160;2023-04-06T13:53:26;98546.28;;;17.45;23.79
141;BME280;65;48.778;9.160;2023-04-06T13:56:12;98545.59;;;16.90;23.27
141;BME280;65;48.778;9.160;2023-04-06T13:58:58;98539.72;;;16.53;24.78
141;BME280;65;48.778;9.160;2023-04-06T14:01:44;98539.25;;;16.48;25.32
141;BME280;65;48.778;9.160;2023-04-06T14:04:30;98536.13;;;16.32;25.79
141;BME280;65;48.778;9.160;2023-04-06T14:07:16;98532.41;;;16.01;26.47
141;BME280;65;48.778;9.160;2023-04-06T14:10:02;98538.69;;;17.29;23.70
141;BME280;65;48.778;9.160;2023-04-06T14:12:48;98534.44;;;16.85;24.13
141;BME280;65;48.778;9.160;2023-04-06T14:15:34;98527.91;;;16.24;26.03
141;BME280;65;48.778;9.160;2023-04-06T14:18:21;98531.56;;;16.77;27.13
141;BME280;65;48.778;9.160;2023-04-06T14:21:07;98525.06;;;17.32;25.73
141;BME280;65;48.778;9.160;2023-04-06T14:23:53;98538.69;;;16.88;24.37
141;BME280;65;48.778;9.160;2023-04-06T14:26:39;98537.19;;;17.16;23.44
141;BME280;65;48.778;9.160;2023-04-06T14:29:26;98532.84;;;16.39;24.65
141;BME280;65;48.778;9.160;2023-04-06T14:32:12;98530.00;;;15.64;24.37
141;BME280;65;48.778;9.160;2023-04-06T14:34:58;98537.22;;;15.05;27.81
141;BME280;65;48.778;9.160;2023-04-06T14:37:43;98535.34;;;15.29;27.04
141;BME280;65;48.778;9.160;2023-04-06T14:40:29;98533.66;;;15.50;24.99
141;BME280;65;48.778;9.160;2023-04-06T14:43:15;98521.16;;;15.75;27.67
141;BME280;65;48.778;9.160;2023-04-06T14:46:02;98515.91;;;15.96;25.33
141;BME280;65;48.778;9.160;2023-04-06T14:48:48;98514.22;;;15.95;25.24
141;BME280;65;48.778;9.160;2023-04-06T14:51:34;98523.81;;;15.75;25.41
141;BME280;65;48.778;9.160;2023-04-06T14:54:20;98516.78;;;15.05;26.72
141;BME280;65;48.778;9.160;2023-04-06T14:57:06;98521.88;;;14.84;27.44
141;BME280;65;48.778;9.160;2023-04-06T14:59:54;98514.03;;;14.94;25.50
141;BME280;65;48.778;9.160;2023-04-06T15:02:40;98512.28;;;14.47;28.61
141;BME280;65;48.778;9.160;2023-04-06T15:05:28;98505.66;;;14.40;26.47
141;BME280;65;48.778;9.160;2023-04-06T15:08:38;98519.63;;;14.07;26.78
141;BME280;65;48.778;9.160;2023-04-06T15:11:23;98508.34;;;14.52;28.99
141;BME280;65;48.778;9.160;2023-04-06T15:14:09;98514.50;;;14.88;26.47
141;BME280;65;48.778;9.160;2023-04-06T15:16:55;98507.94;;;14.46;26.67
141;BME280;65;48.778;9.160;2023-04-06T15:19:41;98507.22;;;14.79;26.54
141;BME280;65;48.778;9.160;2023-04-06T15:22:32;98514.66;;;14.63;25.88
141;BME280;65;48.778;9.160;2023-04-06T15:25:17;98506.75;;;14.50;28.71
141;BME280;65;48.778;9.160;2023-04-06T15:28:09;98506.31;;;14.43;26.00
141;BME280;65;48.778;9.160;2023-04-06T15:30:55;98510.75;;;14.19;27.87
141;BME280;65;48.778;9.160;2023-04-06T15:33:42;98510.91;;;14.05;29.65
141;BME280;65;48.778;9.160;2023-04-06T15:36:29;98513.91;;;14.00;29.35
141;BME280;65;48.778;9.160;2023-04-06T15:39:15;98516.53;;;14.49;26.39
141;BME280;65;48.778;9.160;2023-04-06T15:42:01;98513.75;;;14.51;27.00
141;BME280;65;48.778;9.160;2023-04-06T15:44:46;98514.03;;;14.59;29.47
141;BME280;65;48.778;9.160;2023-04-06T15:47:32;98510.47;;;14.47;27.70
141;BME280;65;48.778;9.160;2023-04-06T15:50:18;98513.88;;;14.37;28.99
141;BME280;65;48.778;9.160;2023-04-06T15:53:04;98523.78;;;14.35;28.75
141;BME280;65;48.778;9.160;2023-04-06T15:55:50;98516.97;;;14.31;27.84
141;BME280;65;48.778;9.160;2023-04-06T15:58:36;98517.84;;;14.31;28.88
141;BME280;65;48.778;9.160;2023-04-06T16:01:22;98515.16;;;14.31;28.35
141;BME280;65;48.778;9.160;2023-04-06T16:04:10;98521.91;;;14.24;27.23
141;BME280;65;48.778;9.160;2023-04-06T16:06:57;98516.91;;;14.19;27.47
141;BME280;65;48.778;9.160;2023-04-06T16:09:42;98513.84;;;14.13;27.06
141;BME280;65;48.778;9.160;2023-04-06T16:12:28;98519.44;;;13.84;32.70
141;BME280;65;48.778;9.160;2023-04-06T16:15:14;98525.72;;;13.71;30.49
141;BME280;65;48.778;9.160;2023-04-06T16:18:00;98522.75;;;13.75;31.06